No particular awareness of the weather is required.    There are no Weather-warnings


Meteo18 Weather Cam more information Meteo18 Weather Cam


Thunder radar more information blitzortung!


Rain radar more information rain snow radar


Visit our other weather sites:

Template documentation
and downloads

And another site



Weather Underground History page Text

Daily Summary for January 9, 2017 Units:  English    Metric   Both
« Previous Day
Next Day »
Daily Weekly Monthly Yearly Custom
  High: Low: Average:
Temperature: TemperatureC °F 1.3 °F 3.3 °F
Dew Point: DewpointC °F 1.0 °F 3 °F
Humidity: Humidity % 98 % 98 %
Wind Speed: WindSpeedKMH mph 0.0 mph 3.6 mph
Wind Gust: WindSpeedGustKMH mph - -
Wind:- - SW
Pressure: PressurehPa in 1018.2 in -
Precipitation: 1.5 in    
Historical Graphs
 
 
Tabular Data for January 9, 2017
Time Temperature Dew Point Pressure Wind Wind Speed Wind Gust Humidity Rainfall Rate (Hourly)
TemperatureC °F DewpointC °F PressurehPa in Calm     Humidity % HourlyPrecipMM in
00:02 2.0 °F 1.7 °F 1032.7 in Calm   1.6 mph 98 % 0.0 in
00:07 2.1 °F 1.8 °F 1032.7 in WNW 1.6 mph 1.6 mph 98 % 0.0 in
00:12 2.0 °F 1.7 °F 1032.4 in Calm   3.2 mph 98 % 0.0 in
00:17 2.0 °F 1.7 °F 1032.4 in Calm   3.2 mph 98 % 0.0 in
00:22 2.1 °F 1.8 °F 1032.4 in Calm   3.2 mph 98 % 0.0 in
00:27 2.1 °F 1.8 °F 1032.4 in Calm   3.2 mph 98 % 0.0 in
00:32 2.1 °F 1.8 °F 1032.4 in Calm     98 % 0.0 in
00:42 1.8 °F 1.5 °F 1032.7 in Calm   6.4 mph 98 % 0.0 in
00:52 1.8 °F 1.5 °F 1032.7 in Calm   9.7 mph 98 % 0.0 in
00:57 1.8 °F 1.5 °F 1032.7 in Calm   9.7 mph 98 % 0.0 in
01:02 1.8 °F 1.5 °F 1032.4 in Calm   6.4 mph 98 % 0.0 in
01:07 1.8 °F 1.5 °F 1032.4 in Calm   1.6 mph 98 % 0.0 in
01:12 1.7 °F 1.4 °F 1032.4 in Calm   1.6 mph 98 % 0.0 in
01:17 1.7 °F 1.4 °F 1032.4 in Calm   1.6 mph 98 % 0.0 in
01:22 1.7 °F 1.4 °F 1032.1 in SW 1.6 mph 1.6 mph 98 % 0.0 in
01:27 1.7 °F 1.4 °F 1032.4 in Calm   1.6 mph 98 % 0.0 in
01:32 1.7 °F 1.4 °F 1032.1 in Calm   1.6 mph 98 % 0.0 in
01:37 1.8 °F 1.5 °F 1032.1 in SSW 1.6 mph 1.6 mph 98 % 0.0 in
01:42 1.8 °F 1.5 °F 1032.1 in Calm   3.2 mph 98 % 0.0 in
01:47 1.8 °F 1.5 °F 1032.1 in Calm   3.2 mph 98 % 0.0 in
01:52 1.8 °F 1.5 °F 1032.1 in Calm   3.2 mph 98 % 0.0 in
01:57 1.7 °F 1.4 °F 1032.1 in Calm   1.6 mph 98 % 0.0 in
02:02 1.7 °F 1.4 °F 1032.1 in Calm     98 % 0.0 in
02:07 1.6 °F 1.3 °F 1032.1 in Calm     98 % 0.0 in
02:12 1.6 °F 1.3 °F 1032.1 in NE 1.6 mph 3.2 mph 98 % 0.0 in
02:17 1.6 °F 1.3 °F 1032.1 in Calm   3.2 mph 98 % 0.0 in
02:22 1.6 °F 1.3 °F 1032.1 in Calm   4.8 mph 98 % 0.0 in
02:27 1.5 °F 1.2 °F 1032.1 in Calm   4.8 mph 98 % 0.0 in
02:32 1.6 °F 1.3 °F 1032.1 in Calm   1.6 mph 98 % 0.0 in
02:37 1.5 °F 1.2 °F 1032.1 in Calm   1.6 mph 98 % 0.0 in
02:42 1.5 °F 1.2 °F 1032.1 in Calm   1.6 mph 98 % 0.0 in
02:47 1.6 °F 1.3 °F 1032.1 in Calm   3.2 mph 98 % 0.0 in
02:52 1.6 °F 1.3 °F 1032.1 in SSW 1.6 mph 3.2 mph 98 % 0.0 in
02:57 1.5 °F 1.2 °F 1032.1 in West 1.6 mph 3.2 mph 98 % 0.0 in
03:02 1.6 °F 1.3 °F 1032.1 in Calm   3.2 mph 98 % 0.0 in
03:07 1.6 °F 1.3 °F 1032.1 in Calm   3.2 mph 98 % 0.0 in
03:12 1.6 °F 1.3 °F 1032.1 in Calm   3.2 mph 98 % 0.0 in
03:17 1.6 °F 1.3 °F 1031.7 in Calm   1.6 mph 98 % 0.0 in
03:22 1.6 °F 1.3 °F 1031.7 in Calm   1.6 mph 98 % 0.0 in
03:27 1.6 °F 1.3 °F 1031.7 in Calm     98 % 0.0 in
03:32 1.6 °F 1.3 °F 1031.7 in Calm     98 % 0.0 in
03:37 1.6 °F 1.3 °F 1031.7 in Calm     98 % 0.0 in
03:42 1.6 °F 1.3 °F 1031.7 in Calm     98 % 0.0 in
03:47 1.6 °F 1.3 °F 1031.7 in Calm     98 % 0.0 in
03:52 1.5 °F 1.2 °F 1031.4 in Calm     98 % 0.0 in
03:57 1.4 °F 1.1 °F 1031.4 in Calm     98 % 0.0 in
04:02 1.4 °F 1.1 °F 1031.4 in Calm     98 % 0.0 in
04:07 1.4 °F 1.1 °F 1031.4 in Calm     98 % 0.0 in
04:12 1.4 °F 1.1 °F 1031.4 in West 1.6 mph   98 % 0.0 in
04:17 1.4 °F 1.1 °F 1031.4 in Calm   3.2 mph 98 % 0.0 in
04:22 1.4 °F 1.1 °F 1031.4 in Calm   3.2 mph 98 % 0.0 in
04:32 1.4 °F 1.1 °F 1031.4 in Calm     98 % 0.0 in
04:42 1.4 °F 1.1 °F 1031.0 in Calm     98 % 0.0 in
04:47 1.4 °F 1.1 °F 1031.0 in Calm     98 % 0.0 in
04:52 1.4 °F 1.1 °F 1031.0 in Calm     98 % 0.0 in
04:57 1.4 °F 1.1 °F 1031.0 in Calm     98 % 0.0 in
05:02 1.4 °F 1.1 °F 1031.0 in Calm     98 % 0.0 in
05:12 1.4 °F 1.1 °F 1031.0 in Calm     98 % 0.0 in
05:17 1.4 °F 1.1 °F 1031.0 in Calm     98 % 0.0 in
05:22 1.4 °F 1.1 °F 1030.7 in Calm     98 % 0.0 in
05:27 1.4 °F 1.1 °F 1031.0 in Calm     98 % 0.0 in
05:32 1.3 °F 1.0 °F 1030.7 in Calm   3.2 mph 98 % 0.0 in
05:37 1.3 °F 1.0 °F 1031.0 in West 1.6 mph 3.2 mph 98 % 0.0 in
05:42 1.3 °F 1.0 °F 1030.7 in Calm   3.2 mph 98 % 0.0 in
05:47 1.3 °F 1.0 °F 1031.0 in Calm   1.6 mph 98 % 0.0 in
05:52 1.3 °F 1.0 °F 1030.7 in Calm   1.6 mph 98 % 0.0 in
05:57 1.3 °F 1.0 °F 1030.7 in Calm     98 % 0.0 in
06:02 1.4 °F 1.1 °F 1030.7 in Calm     98 % 0.0 in
06:07 1.4 °F 1.1 °F 1030.7 in Calm     98 % 0.0 in
06:17 1.3 °F 1.0 °F 1030.4 in Calm     98 % 0.0 in
06:22 1.4 °F 1.1 °F 1030.4 in SW 1.6 mph   98 % 0.0 in
06:27 1.4 °F 1.1 °F 1030.7 in Calm     98 % 0.0 in
06:32 1.3 °F 1.0 °F 1030.4 in Calm   3.2 mph 98 % 0.0 in
06:37 1.3 °F 1.0 °F 1030.4 in Calm   3.2 mph 98 % 0.0 in
06:42 1.4 °F 1.1 °F 1030.4 in Calm   3.2 mph 98 % 0.0 in
06:52 1.4 °F 1.1 °F 1030.4 in Calm     98 % 0.0 in
06:57 1.4 °F 1.1 °F 1030.4 in Calm     98 % 0.0 in
07:02 1.4 °F 1.1 °F 1030.4 in Calm     98 % 0.0 in
07:12 1.4 °F 1.1 °F 1030.4 in Calm     98 % 0.0 in
07:17 1.4 °F 1.1 °F 1030.4 in Calm     98 % 0.0 in
07:22 1.4 °F 1.1 °F 1030.4 in Calm     98 % 0.0 in
07:32 1.4 °F 1.1 °F 1030.4 in Calm     98 % 0.0 in
07:37 1.4 °F 1.1 °F 1030.0 in Calm     98 % 0.0 in
07:42 1.6 °F 1.3 °F 1030.0 in Calm     98 % 0.0 in
07:47 1.6 °F 1.3 °F 1030.0 in Calm     98 % 0.0 in
07:52 1.6 °F 1.3 °F 1030.0 in Calm     98 % 0.0 in
07:57 1.6 °F 1.3 °F 1030.0 in Calm     98 % 0.0 in
08:02 1.6 °F 1.3 °F 1030.0 in SSW 1.6 mph 3.2 mph 98 % 0.0 in
08:07 1.7 °F 1.4 °F 1030.0 in Calm   3.2 mph 98 % 0.0 in
08:12 1.7 °F 1.4 °F 1030.0 in Calm   3.2 mph 98 % 0.0 in
08:17 1.7 °F 1.4 °F 1030.0 in Calm   3.2 mph 98 % 0.0 in
08:22 1.7 °F 1.4 °F 1030.0 in Calm     98 % 0.0 in
08:27 1.7 °F 1.4 °F 1030.0 in Calm     98 % 0.0 in
08:32 1.7 °F 1.4 °F 1030.0 in Calm     98 % 0.0 in
08:37 1.7 °F 1.4 °F 1030.0 in Calm     98 % 0.0 in
08:42 1.8 °F 1.5 °F 1030.0 in Calm     98 % 0.0 in
08:47 1.8 °F 1.5 °F 1030.0 in Calm     98 % 0.0 in
08:52 1.9 °F 1.6 °F 1030.0 in Calm   9.7 mph 98 % 0.0 in
08:57 2.0 °F 1.7 °F 1030.0 in West 1.6 mph 9.7 mph 98 % 0.0 in
09:02 2.0 °F 1.7 °F 1030.0 in WSW 3.2 mph 9.7 mph 98 % 0.0 in
09:12 2.1 °F 1.8 °F 1030.0 in SW 3.2 mph 6.4 mph 98 % 0.0 in
09:22 2.3 °F 2.0 °F 1030.4 in West 1.6 mph 6.4 mph 98 % 0.0 in
09:27 2.3 °F 2.0 °F 1030.0 in WSW 3.2 mph 6.4 mph 98 % 0.0 in
09:32 2.3 °F 2.0 °F 1030.0 in SW 4.8 mph 6.4 mph 98 % 0.0 in
09:37 2.3 °F 2.0 °F 1030.0 in SSW 3.2 mph 8.0 mph 98 % 0.0 in
09:42 2.3 °F 2.0 °F 1030.0 in SSE 3.2 mph 11.3 mph 98 % 0.0 in
09:52 2.3 °F 2.0 °F 1030.0 in WSW 1.6 mph 11.3 mph 98 % 0.0 in
09:57 2.3 °F 2.0 °F 1030.0 in Calm   8.0 mph 98 % 0.0 in
10:02 2.3 °F 2.0 °F 1030.0 in WSW 1.6 mph 8.0 mph 98 % 0.0 in
10:07 2.4 °F 2.1 °F 1030.0 in SW 6.4 mph 9.7 mph 98 % 0.0 in
10:12 2.4 °F 2.1 °F 1030.0 in SSW 3.2 mph 9.7 mph 98 % 0.0 in
10:17 2.4 °F 2.1 °F 1030.0 in SSW 6.4 mph 9.7 mph 98 % 0.0 in
10:22 2.4 °F 2.1 °F 1030.0 in SSW 1.6 mph 8.0 mph 98 % 0.0 in
10:27 2.5 °F 2.2 °F 1029.7 in SSW 4.8 mph 8.0 mph 98 % 0.0 in
10:32 2.5 °F 2.2 °F 1029.7 in South 3.2 mph 8.0 mph 98 % 0.0 in
10:37 2.5 °F 2.2 °F 1029.7 in SSW 4.8 mph 8.0 mph 98 % 0.0 in
10:42 2.6 °F 2.3 °F 1029.7 in SW 4.8 mph 6.4 mph 98 % 0.0 in
10:47 2.6 °F 2.3 °F 1030.0 in SW 4.8 mph 11.3 mph 98 % 0.0 in
10:52 2.6 °F 2.3 °F 1029.7 in SSW 8.0 mph 11.3 mph 98 % 0.0 in
10:57 2.6 °F 2.3 °F 1029.7 in SW 4.8 mph 11.3 mph 98 % 0.0 in
11:02 2.7 °F 2.4 °F 1029.7 in SSW 8.0 mph 11.3 mph 98 % 0.0 in
11:07 2.7 °F 2.4 °F 1029.7 in South 8.0 mph 12.9 mph 98 % 0.0 in
11:17 2.8 °F 2.5 °F 1029.3 in SSW 6.4 mph 12.9 mph 98 % 0.0 in
11:22 2.8 °F 2.5 °F 1029.3 in SW 6.4 mph 12.9 mph 98 % 0.0 in
11:27 2.9 °F 2.6 °F 1029.7 in SW 8.0 mph 11.3 mph 98 % 0.0 in
11:32 2.9 °F 2.6 °F 1029.3 in SSW 8.0 mph 11.3 mph 98 % 0.0 in
11:37 3.0 °F 2.7 °F 1029.3 in SSW 4.8 mph 11.3 mph 98 % 0.0 in
11:42 3.1 °F 2.8 °F 1029.3 in SW 8.0 mph 11.3 mph 98 % 0.0 in
11:47 3.0 °F 2.7 °F 1029.3 in SSW 8.0 mph 11.3 mph 98 % 0.0 in
11:52 3.1 °F 2.8 °F 1029.3 in SW 8.0 mph 12.9 mph 98 % 0.0 in
11:57 3.1 °F 2.8 °F 1029.3 in SSW 1.6 mph 12.9 mph 98 % 0.0 in
12:02 3.1 °F 2.8 °F 1029.3 in SW 8.0 mph 12.9 mph 98 % 0.0 in
12:07 3.2 °F 2.9 °F 1029.0 in South 4.8 mph 11.3 mph 98 % 0.0 in
12:12 3.2 °F 2.9 °F 1029.0 in SW 9.7 mph 11.3 mph 98 % 0.0 in
12:17 3.3 °F 3.0 °F 1028.7 in SW 8.0 mph 11.3 mph 98 % 0.0 in
12:22 3.3 °F 3.0 °F 1028.7 in SSW 8.0 mph 11.3 mph 98 % 0.0 in
12:27 3.3 °F 3.0 °F 1028.7 in SSW 8.0 mph 12.9 mph 98 % 0.0 in
12:32 3.4 °F 3.1 °F 1028.7 in SSW 8.0 mph 12.9 mph 98 % 0.0 in
12:42 3.6 °F 3.3 °F 1028.7 in WSW 4.8 mph 11.3 mph 98 % 0.0 in
12:47 3.6 °F 3.3 °F 1028.3 in SW 4.8 mph 11.3 mph 98 % 0.0 in
12:57 3.6 °F 3.3 °F 1028.3 in SW 8.0 mph 11.3 mph 98 % 0.0 in
13:02 3.7 °F 3.4 °F 1028.0 in SW 8.0 mph 11.3 mph 98 % 0.0 in
13:07 3.7 °F 3.4 °F 1028.0 in South 6.4 mph 11.3 mph 98 % 0.0 in
13:12 3.8 °F 3.5 °F 1028.0 in SW 8.0 mph 11.3 mph 98 % 0.0 in
13:17 3.8 °F 3.5 °F 1027.7 in SW 4.8 mph 12.9 mph 98 % 0.0 in
13:22 3.9 °F 3.6 °F 1027.7 in South 3.2 mph 12.9 mph 98 % 0.0 in
13:27 4.0 °F 3.7 °F 1027.7 in SSW 8.0 mph 12.9 mph 98 % 0.0 in
13:32 4.0 °F 3.7 °F 1027.7 in South 4.8 mph 9.7 mph 98 % 0.0 in
13:37 4.1 °F 3.8 °F 1027.7 in SSW 3.2 mph 12.9 mph 98 % 0.0 in
13:42 4.1 °F 3.8 °F 1027.3 in SSW 1.6 mph 12.9 mph 98 % 0.0 in
13:47 4.2 °F 3.9 °F 1027.3 in WSW 6.4 mph 12.9 mph 98 % 0.0 in
13:52 4.2 °F 3.9 °F 1027.3 in SW 4.8 mph 11.3 mph 98 % 0.0 in
13:57 4.3 °F 4.0 °F 1027.0 in SSW 3.2 mph 11.3 mph 98 % 0.0 in
14:02 4.4 °F 4.1 °F 1027.0 in Calm   11.3 mph 98 % 0.0 in
14:07 4.4 °F 4.1 °F 1027.0 in SW 3.2 mph 9.7 mph 98 % 0.0 in
14:12 4.6 °F 4.3 °F 1027.0 in SW 6.4 mph 8.0 mph 98 % 0.0 in
14:17 4.6 °F 4.3 °F 1026.6 in SSW 6.4 mph 9.7 mph 98 % 0.3 in
14:22 4.7 °F 4.4 °F 1026.6 in WSW 12.9 mph 12.9 mph 98 % 0.3 in
14:27 4.7 °F 4.4 °F 1026.6 in SSW 3.2 mph 12.9 mph 98 % 0.3 in
14:32 4.7 °F 4.4 °F 1026.6 in WSW 1.6 mph 12.9 mph 98 % 0.3 in
14:37 4.7 °F 4.4 °F 1026.6 in WSW 4.8 mph 12.9 mph 98 % 0.3 in
14:42 4.8 °F 4.5 °F 1026.3 in South 3.2 mph 12.9 mph 98 % 0.3 in
14:47 4.8 °F 4.5 °F 1026.3 in SW 9.7 mph 11.3 mph 98 % 0.5 in
14:52 4.9 °F 4.6 °F 1026.3 in South 4.8 mph 11.3 mph 98 % 0.5 in
14:57 4.9 °F 4.6 °F 1026.3 in SW 12.9 mph 12.9 mph 98 % 0.5 in
15:02 4.9 °F 4.6 °F 1026.0 in SW 9.7 mph 12.9 mph 98 % 0.5 in
15:07 4.9 °F 4.6 °F 1026.0 in SW 4.8 mph 12.9 mph 98 % 0.5 in
15:12 4.9 °F 4.6 °F 1026.0 in SW 6.4 mph 14.5 mph 98 % 0.5 in
15:17 5.0 °F 4.7 °F 1026.0 in SSW 4.8 mph 14.5 mph 98 % 0.3 in
15:22 5.0 °F 4.7 °F 1026.0 in West 6.4 mph 9.7 mph 98 % 0.3 in
15:27 5.1 °F 4.8 °F 1026.0 in SW 6.4 mph 11.3 mph 98 % 0.3 in
15:32 5.1 °F 4.8 °F 1025.6 in SSW 8.0 mph 16.1 mph 98 % 0.3 in
15:37 5.1 °F 4.8 °F 1025.6 in WSW 11.3 mph 16.1 mph 98 % 0.3 in
15:42 5.1 °F 4.8 °F 1025.6 in SSW 1.6 mph 16.1 mph 98 % 0.3 in
15:47 5.1 °F 4.8 °F 1025.6 in West 3.2 mph 14.5 mph 98 % 0.0 in
15:52 5.1 °F 4.8 °F 1025.6 in WSW 9.7 mph 12.9 mph 98 % 0.0 in
15:57 5.2 °F 4.9 °F 1025.6 in West 3.2 mph 14.5 mph 98 % 0.0 in
16:02 5.2 °F 4.9 °F 1025.6 in SW 6.4 mph 14.5 mph 98 % 0.0 in
16:07 5.2 °F 4.9 °F 1025.6 in WSW 4.8 mph 14.5 mph 98 % 0.0 in
16:12 5.2 °F 4.9 °F 1025.6 in SSW 4.8 mph 12.9 mph 98 % 0.0 in
16:17 5.2 °F 4.9 °F 1025.6 in SW 3.2 mph 11.3 mph 98 % 0.0 in
16:22 5.2 °F 4.9 °F 1025.3 in WSW 3.2 mph 11.3 mph 98 % 0.0 in
16:27 5.2 °F 4.9 °F 1025.3 in SW 6.4 mph 11.3 mph 98 % 0.0 in
16:37 5.3 °F 5.0 °F 1025.3 in Calm   9.7 mph 98 % 0.0 in
16:42 5.3 °F 5.0 °F 1025.3 in Calm   9.7 mph 98 % 0.0 in
16:47 5.3 °F 5.0 °F 1024.9 in South 1.6 mph 4.8 mph 98 % 0.0 in
16:52 5.3 °F 5.0 °F 1024.9 in SSW 1.6 mph 3.2 mph 98 % 0.0 in
16:57 5.3 °F 5.0 °F 1024.9 in Calm   8.0 mph 98 % 0.0 in
17:02 5.3 °F 5.0 °F 1024.9 in WSW 3.2 mph 8.0 mph 98 % 0.0 in
17:07 5.3 °F 5.0 °F 1024.9 in SW 8.0 mph 8.0 mph 98 % 0.0 in
17:12 5.4 °F 5.1 °F 1024.9 in SW 6.4 mph 9.7 mph 98 % 0.0 in
17:17 5.4 °F 5.1 °F 1024.9 in SW 4.8 mph 12.9 mph 98 % 0.0 in
17:22 5.4 °F 5.1 °F 1024.9 in SW 1.6 mph 12.9 mph 98 % 0.0 in
17:32 5.4 °F 5.1 °F 1024.6 in South 1.6 mph 9.7 mph 98 % 0.0 in
17:42 5.4 °F 5.1 °F 1024.6 in WSW 4.8 mph 12.9 mph 98 % 0.0 in
17:52 5.4 °F 5.1 °F 1024.6 in SW 4.8 mph 12.9 mph 98 % 0.3 in
17:57 5.4 °F 5.1 °F 1024.3 in South 8.0 mph 12.9 mph 98 % 0.5 in
18:02 5.4 °F 5.1 °F 1024.3 in WSW 6.4 mph 12.9 mph 98 % 0.5 in
18:12 5.4 °F 5.1 °F 1024.3 in SW 6.4 mph 11.3 mph 98 % 0.5 in
18:17 5.4 °F 5.1 °F 1024.3 in SW 8.0 mph 11.3 mph 98 % 0.5 in
18:22 5.4 °F 5.1 °F 1024.3 in SW 9.7 mph 12.9 mph 98 % 0.5 in
18:27 5.4 °F 5.1 °F 1023.9 in SW 6.4 mph 12.9 mph 98 % 0.5 in
18:32 5.4 °F 5.1 °F 1023.9 in SW 6.4 mph 16.1 mph 98 % 0.5 in
18:37 5.3 °F 5.0 °F 1023.6 in SSW 3.2 mph 16.1 mph 98 % 0.5 in
18:47 5.4 °F 5.1 °F 1023.6 in SW 9.7 mph 12.9 mph 98 % 0.3 in
18:52 5.4 °F 5.1 °F 1023.2 in SW 9.7 mph 14.5 mph 98 % 0.0 in
19:02 5.3 °F 5.0 °F 1023.2 in SW 8.0 mph 16.1 mph 98 % 0.0 in
19:07 5.3 °F 5.0 °F 1023.2 in WSW 3.2 mph 14.5 mph 98 % 0.0 in
19:12 5.4 °F 5.1 °F 1023.2 in SW 4.8 mph 12.9 mph 98 % 0.0 in
19:22 5.4 °F 5.1 °F 1023.2 in SSW 3.2 mph 12.9 mph 98 % 0.0 in
19:27 5.4 °F 5.1 °F 1023.2 in WSW 4.8 mph 12.9 mph 98 % 0.0 in
19:32 5.4 °F 5.1 °F 1022.9 in SW 4.8 mph 12.9 mph 98 % 0.0 in
19:42 5.3 °F 5.0 °F 1022.9 in SW 3.2 mph 11.3 mph 98 % 0.0 in
19:47 5.3 °F 5.0 °F 1022.9 in SW 1.6 mph 8.0 mph 98 % 0.0 in
19:52 5.3 °F 5.0 °F 1022.9 in SSW 4.8 mph 8.0 mph 98 % 0.0 in
19:57 5.3 °F 5.0 °F 1022.6 in SW 9.7 mph 9.7 mph 98 % 0.0 in
20:02 5.3 °F 5.0 °F 1022.6 in SSW 3.2 mph 11.3 mph 98 % 0.0 in
20:07 5.3 °F 5.0 °F 1022.6 in SSW 6.4 mph 11.3 mph 98 % 0.0 in
20:12 5.2 °F 4.9 °F 1022.2 in SSW 3.2 mph 11.3 mph 98 % 0.0 in
20:17 5.3 °F 5.0 °F 1022.2 in SW 8.0 mph 9.7 mph 98 % 0.0 in
20:22 5.3 °F 5.0 °F 1022.2 in SW 8.0 mph 16.1 mph 98 % 0.0 in
20:32 5.3 °F 5.0 °F 1021.9 in SSW 8.0 mph 16.1 mph 98 % 0.0 in
20:37 5.3 °F 5.0 °F 1021.9 in South 4.8 mph 14.5 mph 98 % 0.0 in
20:42 5.3 °F 5.0 °F 1021.6 in SSW 6.4 mph 14.5 mph 98 % 0.0 in
20:52 5.3 °F 5.0 °F 1021.6 in South 6.4 mph 14.5 mph 98 % 0.0 in
21:02 5.3 °F 5.0 °F 1021.2 in SW 6.4 mph 14.5 mph 98 % 0.0 in
21:12 5.3 °F 5.0 °F 1021.2 in SW 8.0 mph 12.9 mph 98 % 0.3 in
21:17 5.3 °F 5.0 °F 1020.9 in SW 14.5 mph 14.5 mph 98 % 0.3 in
21:22 5.3 °F 5.0 °F 1020.9 in SW 8.0 mph 16.1 mph 98 % 0.3 in
21:27 5.3 °F 5.0 °F 1020.9 in SSW 8.0 mph 16.1 mph 98 % 0.3 in
21:32 5.3 °F 5.0 °F 1020.9 in SW 3.2 mph 16.1 mph 98 % 0.3 in
21:42 5.4 °F 5.1 °F 1020.5 in SSW 1.6 mph 12.9 mph 98 % 0.3 in
21:47 5.4 °F 5.1 °F 1020.5 in SW 4.8 mph 12.9 mph 98 % 0.3 in
21:52 5.4 °F 5.1 °F 1020.5 in SW 6.4 mph 11.3 mph 98 % 0.3 in
22:02 5.4 °F 5.1 °F 1020.2 in SW 6.4 mph 16.1 mph 98 % 0.3 in
22:07 5.4 °F 5.1 °F 1020.2 in SW 9.7 mph 16.1 mph 98 % 0.0 in
22:17 5.4 °F 5.1 °F 1020.2 in WSW 4.8 mph 17.7 mph 98 % 0.0 in
22:22 5.4 °F 5.1 °F 1019.9 in WSW 12.9 mph 17.7 mph 98 % 0.0 in
22:27 5.4 °F 5.1 °F 1019.9 in SW 12.9 mph 20.9 mph 98 % 0.0 in
22:32 5.4 °F 5.1 °F 1019.9 in SSW 8.0 mph 20.9 mph 98 % 0.0 in
22:42 5.4 °F 5.1 °F 1019.5 in SW 8.0 mph 17.7 mph 98 % 0.0 in
22:47 5.3 °F 5.0 °F 1019.5 in SW 4.8 mph 17.7 mph 98 % 0.0 in
22:57 5.3 °F 5.0 °F 1019.2 in SW 16.1 mph 16.1 mph 98 % 0.3 in
23:02 5.4 °F 5.1 °F 1019.2 in WSW 11.3 mph 19.3 mph 98 % 0.3 in
23:12 5.4 °F 5.1 °F 1019.2 in SW 6.4 mph 22.5 mph 98 % 0.3 in
23:17 5.4 °F 5.1 °F 1018.8 in WSW 8.0 mph 22.5 mph 98 % 0.3 in
23:27 5.4 °F 5.1 °F 1018.8 in WSW 14.5 mph 17.7 mph 98 % 0.5 in
23:32 5.4 °F 5.1 °F 1018.8 in SW 4.8 mph 17.7 mph 98 % 0.5 in
23:37 5.4 °F 5.1 °F 1018.5 in SW 3.2 mph 17.7 mph 98 % 0.5 in
23:42 5.4 °F 5.1 °F 1018.5 in SSW 6.4 mph 16.1 mph 98 % 0.5 in
23:47 5.4 °F 5.1 °F 1018.5 in WSW 4.8 mph 16.1 mph 98 % 0.5 in
23:52 5.4 °F 5.1 °F 1018.5 in SW 8.0 mph 14.5 mph 98 % 0.5 in
23:57 5.5 °F 5.2 °F 1018.2 in WSW 8.0 mph 16.1 mph 98 % 0.5 in
Meteo18
Compliments of Weather Underground - 4 mb

Script developed by  Jim McMurry - jmcmurry@mwt.net Adapted for the template by  Wim van der Kuil - Leuven-Template.eu

You find our weather info also at:

European Weather Network

Weather Underground

Equipment we use:

Weather-station
Davis Vue

Weather-program
Meteobridge

Weather-server
Raspberry PI 2 B+

Provider
1 and 1

Davis Vue

Meteobridge

Raspberry PI 2 B+

1 and 1